sensor_id;sensor_type;location;lat;lon;timestamp;temperature;humidity
66586;SHT30;53444;45.822;16.092;2024-02-26T00:01:13;4.53;94.73
66586;SHT30;53444;45.822;16.092;2024-02-26T00:03:40;4.62;93.98
66586;SHT30;53444;45.822;16.092;2024-02-26T00:06:07;4.72;93.63
66586;SHT30;53444;45.822;16.092;2024-02-26T00:08:34;4.59;93.59
66586;SHT30;53444;45.822;16.092;2024-02-26T00:11:01;4.59;93.61
66586;SHT30;53444;45.822;16.092;2024-02-26T00:13:27;4.53;93.31
66586;SHT30;53444;45.822;16.092;2024-02-26T00:15:55;4.46;93.04
66586;SHT30;53444;45.822;16.092;2024-02-26T00:18:22;4.48;93.61
66586;SHT30;53444;45.822;16.092;2024-02-26T00:20:49;4.34;94.43
66586;SHT30;53444;45.822;16.092;2024-02-26T00:23:17;4.31;94.79
66586;SHT30;53444;45.822;16.092;2024-02-26T00:25:44;4.21;94.26
66586;SHT30;53444;45.822;16.092;2024-02-26T00:28:11;4.17;94.69
66586;SHT30;53444;45.822;16.092;2024-02-26T00:30:38;4.14;94.62
66586;SHT30;53444;45.822;16.092;2024-02-26T00:33:16;4.11;94.99
66586;SHT30;53444;45.822;16.092;2024-02-26T00:35:46;4.32;94.09
66586;SHT30;53444;45.822;16.092;2024-02-26T00:38:13;4.35;93.75
66586;SHT30;53444;45.822;16.092;2024-02-26T00:40:44;4.41;93.44
66586;SHT30;53444;45.822;16.092;2024-02-26T00:43:10;4.32;93.35
66586;SHT30;53444;45.822;16.092;2024-02-26T00:45:38;4.14;94.41
66586;SHT30;53444;45.822;16.092;2024-02-26T00:48:09;4.05;95.03
66586;SHT30;53444;45.822;16.092;2024-02-26T00:50:41;3.97;96.21
66586;SHT30;53444;45.822;16.092;2024-02-26T00:53:11;4.07;96.10
66586;SHT30;53444;45.822;16.092;2024-02-26T00:55:38;4.10;96.22
66586;SHT30;53444;45.822;16.092;2024-02-26T00:58:07;4.17;95.89
66586;SHT30;53444;45.822;16.092;2024-02-26T01:00:36;4.21;95.21
66586;SHT30;53444;45.822;16.092;2024-02-26T01:03:04;4.32;95.17
66586;SHT30;53444;45.822;16.092;2024-02-26T01:05:30;4.34;94.37
66586;SHT30;53444;45.822;16.092;2024-02-26T01:08:00;4.31;94.14
66586;SHT30;53444;45.822;16.092;2024-02-26T01:10:30;4.19;94.25
66586;SHT30;53444;45.822;16.092;2024-02-26T01:12:59;4.25;94.08
66586;SHT30;53444;45.822;16.092;2024-02-26T01:15:27;4.24;94.38
66586;SHT30;53444;45.822;16.092;2024-02-26T01:17:57;4.15;94.10
66586;SHT30;53444;45.822;16.092;2024-02-26T01:20:29;3.98;94.32
66586;SHT30;53444;45.822;16.092;2024-02-26T01:23:01;3.91;94.74
66586;SHT30;53444;45.822;16.092;2024-02-26T01:25:29;3.70;95.30
66586;SHT30;53444;45.822;16.092;2024-02-26T01:27:58;3.67;95.63
66586;SHT30;53444;45.822;16.092;2024-02-26T01:30:26;3.87;95.15
66586;SHT30;53444;45.822;16.092;2024-02-26T01:32:57;3.87;94.81
66586;SHT30;53444;45.822;16.092;2024-02-26T01:35:27;3.94;94.59
66586;SHT30;53444;45.822;16.092;2024-02-26T01:37:55;3.94;94.15
66586;SHT30;53444;45.822;16.092;2024-02-26T01:40:27;3.91;93.77
66586;SHT30;53444;45.822;16.092;2024-02-26T01:42:55;3.83;93.90
66586;SHT30;53444;45.822;16.092;2024-02-26T01:45:24;3.70;94.35
66586;SHT30;53444;45.822;16.092;2024-02-26T01:47:56;3.59;94.28
66586;SHT30;53444;45.822;16.092;2024-02-26T01:50:30;3.63;94.28
66586;SHT30;53444;45.822;16.092;2024-02-26T01:53:01;3.74;94.38
66586;SHT30;53444;45.822;16.092;2024-02-26T01:55:30;3.80;94.05
66586;SHT30;53444;45.822;16.092;2024-02-26T01:58:09;3.86;93.91
66586;SHT30;53444;45.822;16.092;2024-02-26T02:00:37;3.91;93.84
66586;SHT30;53444;45.822;16.092;2024-02-26T02:03:06;3.83;94.11
66586;SHT30;53444;45.822;16.092;2024-02-26T02:05:34;3.91;93.34
66586;SHT30;53444;45.822;16.092;2024-02-26T02:08:10;3.90;93.70
66586;SHT30;53444;45.822;16.092;2024-02-26T02:10:43;3.81;93.75
66586;SHT30;53444;45.822;16.092;2024-02-26T02:13:14;3.84;93.84
66586;SHT30;53444;45.822;16.092;2024-02-26T02:15:42;3.86;94.36
66586;SHT30;53444;45.822;16.092;2024-02-26T02:18:09;3.86;94.44
66586;SHT30;53444;45.822;16.092;2024-02-26T02:20:37;3.87;94.50
66586;SHT30;53444;45.822;16.092;2024-02-26T02:23:05;3.93;94.55
66586;SHT30;53444;45.822;16.092;2024-02-26T02:25:32;3.95;94.32
66586;SHT30;53444;45.822;16.092;2024-02-26T02:27:59;4.00;94.24
66586;SHT30;53444;45.822;16.092;2024-02-26T02:30:29;3.91;94.66
66586;SHT30;53444;45.822;16.092;2024-02-26T02:32:57;3.84;95.17
66586;SHT30;53444;45.822;16.092;2024-02-26T02:35:23;3.76;95.66
66586;SHT30;53444;45.822;16.092;2024-02-26T02:37:52;3.43;95.90
66586;SHT30;53444;45.822;16.092;2024-02-26T02:40:21;3.30;95.83
66586;SHT30;53444;45.822;16.092;2024-02-26T02:42:47;3.36;96.62
66586;SHT30;53444;45.822;16.092;2024-02-26T02:45:14;3.32;97.42
66586;SHT30;53444;45.822;16.092;2024-02-26T02:47:41;3.33;97.46
66586;SHT30;53444;45.822;16.092;2024-02-26T02:50:10;3.22;97.85
66586;SHT30;53444;45.822;16.092;2024-02-26T02:52:37;3.36;97.27
66586;SHT30;53444;45.822;16.092;2024-02-26T02:55:08;3.39;97.02
66586;SHT30;53444;45.822;16.092;2024-02-26T02:57:34;3.37;96.83
66586;SHT30;53444;45.822;16.092;2024-02-26T03:00:07;3.43;96.60
66586;SHT30;53444;45.822;16.092;2024-02-26T03:02:33;3.35;96.48
66586;SHT30;53444;45.822;16.092;2024-02-26T03:05:01;3.13;96.65
66586;SHT30;53444;45.822;16.092;2024-02-26T03:07:28;3.12;96.79
66586;SHT30;53444;45.822;16.092;2024-02-26T03:09:55;3.09;96.74
66586;SHT30;53444;45.822;16.092;2024-02-26T03:12:23;3.01;97.42
66586;SHT30;53444;45.822;16.092;2024-02-26T03:14:50;3.01;97.51
66586;SHT30;53444;45.822;16.092;2024-02-26T03:17:19;2.98;98.15
66586;SHT30;53444;45.822;16.092;2024-02-26T03:19:46;3.08;98.34
66586;SHT30;53444;45.822;16.092;2024-02-26T03:22:18;3.16;97.83
66586;SHT30;53444;45.822;16.092;2024-02-26T03:24:45;3.16;97.36
66586;SHT30;53444;45.822;16.092;2024-02-26T03:27:12;3.19;97.23
66586;SHT30;53444;45.822;16.092;2024-02-26T03:29:40;3.23;96.93
66586;SHT30;53444;45.822;16.092;2024-02-26T03:32:07;3.26;96.59
66586;SHT30;53444;45.822;16.092;2024-02-26T03:34:34;3.30;96.45
66586;SHT30;53444;45.822;16.092;2024-02-26T03:37:01;3.35;96.15
66586;SHT30;53444;45.822;16.092;2024-02-26T03:39:28;3.33;95.80
66586;SHT30;53444;45.822;16.092;2024-02-26T03:41:54;3.28;95.75
66586;SHT30;53444;45.822;16.092;2024-02-26T03:44:21;3.32;95.69
66586;SHT30;53444;45.822;16.092;2024-02-26T03:46:49;3.18;95.48
66586;SHT30;53444;45.822;16.092;2024-02-26T03:49:16;3.09;95.45
66586;SHT30;53444;45.822;16.092;2024-02-26T03:51:43;3.01;95.74
66586;SHT30;53444;45.822;16.092;2024-02-26T03:54:10;3.01;95.97
66586;SHT30;53444;45.822;16.092;2024-02-26T03:56:36;2.96;95.74
66586;SHT30;53444;45.822;16.092;2024-02-26T03:59:03;2.96;95.60
66586;SHT30;53444;45.822;16.092;2024-02-26T04:04:06;2.88;96.03
66586;SHT30;53444;45.822;16.092;2024-02-26T04:06:33;2.87;95.64
66586;SHT30;53444;45.822;16.092;2024-02-26T04:08:59;2.77;95.69
66586;SHT30;53444;45.822;16.092;2024-02-26T04:11:29;2.71;95.73
66586;SHT30;53444;45.822;16.092;2024-02-26T04:13:55;2.67;96.71
66586;SHT30;53444;45.822;16.092;2024-02-26T04:16:22;2.80;95.71
66586;SHT30;53444;45.822;16.092;2024-02-26T04:18:49;2.81;95.77
66586;SHT30;53444;45.822;16.092;2024-02-26T04:21:17;2.78;95.59
66586;SHT30;53444;45.822;16.092;2024-02-26T04:23:44;2.62;95.78
66586;SHT30;53444;45.822;16.092;2024-02-26T04:26:11;2.51;96.17
66586;SHT30;53444;45.822;16.092;2024-02-26T04:28:37;2.43;96.59
66586;SHT30;53444;45.822;16.092;2024-02-26T04:31:04;2.47;96.58
66586;SHT30;53444;45.822;16.092;2024-02-26T04:33:34;2.60;95.86
66586;SHT30;53444;45.822;16.092;2024-02-26T04:36:00;2.57;95.96
66586;SHT30;53444;45.822;16.092;2024-02-26T04:38:30;2.50;95.79
66586;SHT30;53444;45.822;16.092;2024-02-26T04:40:56;2.54;95.62
66586;SHT30;53444;45.822;16.092;2024-02-26T04:43:23;2.53;95.68
66586;SHT30;53444;45.822;16.092;2024-02-26T04:45:50;2.55;95.36
66586;SHT30;53444;45.822;16.092;2024-02-26T04:48:18;2.47;95.14
66586;SHT30;53444;45.822;16.092;2024-02-26T04:50:44;2.50;95.33
66586;SHT30;53444;45.822;16.092;2024-02-26T04:53:11;2.58;94.89
66586;SHT30;53444;45.822;16.092;2024-02-26T04:55:39;2.55;94.58
66586;SHT30;53444;45.822;16.092;2024-02-26T04:58:05;2.53;94.32
66586;SHT30;53444;45.822;16.092;2024-02-26T05:00:32;2.53;94.25
66586;SHT30;53444;45.822;16.092;2024-02-26T05:02:59;2.48;94.37
66586;SHT30;53444;45.822;16.092;2024-02-26T05:05:29;2.45;94.36
66586;SHT30;53444;45.822;16.092;2024-02-26T05:07:55;2.41;94.38
66586;SHT30;53444;45.822;16.092;2024-02-26T05:10:22;2.43;94.15
66586;SHT30;53444;45.822;16.092;2024-02-26T05:12:50;2.30;94.74
66586;SHT30;53444;45.822;16.092;2024-02-26T05:15:17;2.30;94.55
66586;SHT30;53444;45.822;16.092;2024-02-26T05:17:44;2.38;94.29
66586;SHT30;53444;45.822;16.092;2024-02-26T05:20:11;2.41;94.20
66586;SHT30;53444;45.822;16.092;2024-02-26T05:22:40;2.44;94.44
66586;SHT30;53444;45.822;16.092;2024-02-26T05:25:09;2.38;94.45
66586;SHT30;53444;45.822;16.092;2024-02-26T05:27:36;2.30;94.84
66586;SHT30;53444;45.822;16.092;2024-02-26T05:30:05;2.32;94.70
66586;SHT30;53444;45.822;16.092;2024-02-26T05:32:32;2.26;95.01
66586;SHT30;53444;45.822;16.092;2024-02-26T05:34:58;2.20;94.98
66586;SHT30;53444;45.822;16.092;2024-02-26T05:37:25;2.32;94.76
66586;SHT30;53444;45.822;16.092;2024-02-26T05:39:57;2.29;94.87
66586;SHT30;53444;45.822;16.092;2024-02-26T05:42:24;2.34;94.62
66586;SHT30;53444;45.822;16.092;2024-02-26T05:44:51;2.36;94.64
66586;SHT30;53444;45.822;16.092;2024-02-26T05:47:21;2.24;94.59
66586;SHT30;53444;45.822;16.092;2024-02-26T05:49:49;2.09;95.38
66586;SHT30;53444;45.822;16.092;2024-02-26T05:52:16;2.12;95.36
66586;SHT30;53444;45.822;16.092;2024-02-26T05:54:49;2.17;96.19
66586;SHT30;53444;45.822;16.092;2024-02-26T05:57:15;2.27;96.31
66586;SHT30;53444;45.822;16.092;2024-02-26T05:59:45;2.38;95.94
66586;SHT30;53444;45.822;16.092;2024-02-26T06:02:14;2.44;94.78
66586;SHT30;53444;45.822;16.092;2024-02-26T06:04:42;2.44;94.47
66586;SHT30;53444;45.822;16.092;2024-02-26T06:07:09;2.37;94.62
66586;SHT30;53444;45.822;16.092;2024-02-26T06:09:36;2.38;94.68
66586;SHT30;53444;45.822;16.092;2024-02-26T06:12:04;2.32;94.95
66586;SHT30;53444;45.822;16.092;2024-02-26T06:14:33;2.54;94.92
66586;SHT30;53444;45.822;16.092;2024-02-26T06:17:00;2.57;94.19
66586;SHT30;53444;45.822;16.092;2024-02-26T06:19:27;2.51;93.87
66586;SHT30;53444;45.822;16.092;2024-02-26T06:21:55;2.51;93.91
66586;SHT30;53444;45.822;16.092;2024-02-26T06:24:22;2.58;94.09
66586;SHT30;53444;45.822;16.092;2024-02-26T06:26:49;2.73;94.29
66586;SHT30;53444;45.822;16.092;2024-02-26T06:29:15;2.75;94.18
66586;SHT30;53444;45.822;16.092;2024-02-26T06:31:42;2.68;94.53
66586;SHT30;53444;45.822;16.092;2024-02-26T06:34:09;2.74;94.56
66586;SHT30;53444;45.822;16.092;2024-02-26T06:36:41;2.77;95.08
66586;SHT30;53444;45.822;16.092;2024-02-26T06:39:11;2.94;94.52
66586;SHT30;53444;45.822;16.092;2024-02-26T06:41:41;3.05;94.14
66586;SHT30;53444;45.822;16.092;2024-02-26T06:44:08;3.13;93.99
66586;SHT30;53444;45.822;16.092;2024-02-26T06:46:35;3.22;93.85
66586;SHT30;53444;45.822;16.092;2024-02-26T06:49:01;3.29;93.78
66586;SHT30;53444;45.822;16.092;2024-02-26T06:51:28;3.35;93.54
66586;SHT30;53444;45.822;16.092;2024-02-26T06:53:54;3.42;93.45
66586;SHT30;53444;45.822;16.092;2024-02-26T06:56:22;3.43;93.65
66586;SHT30;53444;45.822;16.092;2024-02-26T06:58:50;3.52;93.31
66586;SHT30;53444;45.822;16.092;2024-02-26T07:01:18;3.64;93.33
66586;SHT30;53444;45.822;16.092;2024-02-26T07:03:45;3.70;93.24
66586;SHT30;53444;45.822;16.092;2024-02-26T07:06:11;3.78;93.57
66586;SHT30;53444;45.822;16.092;2024-02-26T07:08:39;3.87;93.64
66586;SHT30;53444;45.822;16.092;2024-02-26T07:11:07;3.88;94.26
66586;SHT30;53444;45.822;16.092;2024-02-26T07:13:37;4.07;94.12
66586;SHT30;53444;45.822;16.092;2024-02-26T07:16:05;4.21;94.02
66586;SHT30;53444;45.822;16.092;2024-02-26T07:18:32;4.38;93.72
66586;SHT30;53444;45.822;16.092;2024-02-26T07:21:01;4.52;93.11
66586;SHT30;53444;45.822;16.092;2024-02-26T07:23:28;4.63;93.04
66586;SHT30;53444;45.822;16.092;2024-02-26T07:25:55;4.68;93.19
66586;SHT30;53444;45.822;16.092;2024-02-26T07:28:22;4.75;93.63
66586;SHT30;53444;45.822;16.092;2024-02-26T07:30:50;4.99;93.30
66586;SHT30;53444;45.822;16.092;2024-02-26T07:33:17;5.17;93.27
66586;SHT30;53444;45.822;16.092;2024-02-26T07:35:44;5.37;93.02
66586;SHT30;53444;45.822;16.092;2024-02-26T07:38:10;5.48;93.01
66586;SHT30;53444;45.822;16.092;2024-02-26T07:40:39;5.54;92.79
66586;SHT30;53444;45.822;16.092;2024-02-26T07:43:05;5.69;92.60
66586;SHT30;53444;45.822;16.092;2024-02-26T07:45:32;5.88;92.26
66586;SHT30;53444;45.822;16.092;2024-02-26T07:48:02;5.96;92.15
66586;SHT30;53444;45.822;16.092;2024-02-26T07:50:29;6.09;91.82
66586;SHT30;53444;45.822;16.092;2024-02-26T07:52:55;6.25;91.43
66586;SHT30;53444;45.822;16.092;2024-02-26T07:55:23;6.36;90.95
66586;SHT30;53444;45.822;16.092;2024-02-26T07:57:50;6.41;90.83
66586;SHT30;53444;45.822;16.092;2024-02-26T08:00:17;6.61;90.49
66586;SHT30;53444;45.822;16.092;2024-02-26T08:02:44;6.77;89.90
66586;SHT30;53444;45.822;16.092;2024-02-26T08:05:13;6.58;90.44
66586;SHT30;53444;45.822;16.092;2024-02-26T08:07:40;6.74;89.77
66586;SHT30;53444;45.822;16.092;2024-02-26T08:10:08;7.01;89.58
66586;SHT30;53444;45.822;16.092;2024-02-26T08:12:35;7.18;89.14
66586;SHT30;53444;45.822;16.092;2024-02-26T08:15:01;7.32;88.48
66586;SHT30;53444;45.822;16.092;2024-02-26T08:17:28;7.42;88.41
66586;SHT30;53444;45.822;16.092;2024-02-26T08:19:55;7.62;88.20
66586;SHT30;53444;45.822;16.092;2024-02-26T08:22:23;7.71;87.89
66586;SHT30;53444;45.822;16.092;2024-02-26T08:24:50;7.86;87.68
66586;SHT30;53444;45.822;16.092;2024-02-26T08:27:17;8.01;86.93
66586;SHT30;53444;45.822;16.092;2024-02-26T08:29:44;7.79;87.22
66586;SHT30;53444;45.822;16.092;2024-02-26T08:32:10;7.74;87.90
66586;SHT30;53444;45.822;16.092;2024-02-26T08:34:37;7.73;87.58
66586;SHT30;53444;45.822;16.092;2024-02-26T08:37:06;7.86;87.36
66586;SHT30;53444;45.822;16.092;2024-02-26T08:39:34;7.98;86.90
66586;SHT30;53444;45.822;16.092;2024-02-26T08:42:00;8.15;86.81
66586;SHT30;53444;45.822;16.092;2024-02-26T08:44:27;8.22;87.24
66586;SHT30;53444;45.822;16.092;2024-02-26T08:46:54;8.45;86.56
66586;SHT30;53444;45.822;16.092;2024-02-26T08:49:20;8.44;86.44
66586;SHT30;53444;45.822;16.092;2024-02-26T08:51:48;8.72;86.36
66586;SHT30;53444;45.822;16.092;2024-02-26T08:54:15;8.59;86.12
66586;SHT30;53444;45.822;16.092;2024-02-26T08:56:43;8.75;85.85
66586;SHT30;53444;45.822;16.092;2024-02-26T08:59:10;8.94;85.27
66586;SHT30;53444;45.822;16.092;2024-02-26T09:01:37;9.03;85.02
66586;SHT30;53444;45.822;16.092;2024-02-26T09:04:03;9.06;84.39
66586;SHT30;53444;45.822;16.092;2024-02-26T09:06:30;9.12;84.62
66586;SHT30;53444;45.822;16.092;2024-02-26T09:08:57;9.30;83.98
66586;SHT30;53444;45.822;16.092;2024-02-26T09:11:24;9.44;83.82
66586;SHT30;53444;45.822;16.092;2024-02-26T09:13:52;9.38;83.31
66586;SHT30;53444;45.822;16.092;2024-02-26T09:16:19;9.57;83.15
66586;SHT30;53444;45.822;16.092;2024-02-26T09:18:45;9.73;82.40
66586;SHT30;53444;45.822;16.092;2024-02-26T09:21:13;9.91;82.12
66586;SHT30;53444;45.822;16.092;2024-02-26T09:23:39;10.08;82.00
66586;SHT30;53444;45.822;16.092;2024-02-26T09:26:06;10.05;81.32
66586;SHT30;53444;45.822;16.092;2024-02-26T09:28:33;10.20;81.34
66586;SHT30;53444;45.822;16.092;2024-02-26T09:31:04;10.57;80.42
66586;SHT30;53444;45.822;16.092;2024-02-26T09:33:31;10.35;78.73
66586;SHT30;53444;45.822;16.092;2024-02-26T09:35:58;10.53;79.27
66586;SHT30;53444;45.822;16.092;2024-02-26T09:38:26;10.57;79.52
66586;SHT30;53444;45.822;16.092;2024-02-26T09:40:53;10.84;77.37
66586;SHT30;53444;45.822;16.092;2024-02-26T09:43:21;11.08;76.14
66586;SHT30;53444;45.822;16.092;2024-02-26T09:45:50;11.40;75.23
66586;SHT30;53444;45.822;16.092;2024-02-26T09:48:19;11.69;74.37
66586;SHT30;53444;45.822;16.092;2024-02-26T09:50:46;11.75;73.68
66586;SHT30;53444;45.822;16.092;2024-02-26T09:53:13;11.66;73.42
66586;SHT30;53444;45.822;16.092;2024-02-26T09:55:40;11.99;73.73
66586;SHT30;53444;45.822;16.092;2024-02-26T09:58:08;12.00;73.57
66586;SHT30;53444;45.822;16.092;2024-02-26T10:00:37;11.94;73.61
66586;SHT30;53444;45.822;16.092;2024-02-26T10:03:09;11.89;72.60
66586;SHT30;53444;45.822;16.092;2024-02-26T10:05:43;12.31;72.93
66586;SHT30;53444;45.822;16.092;2024-02-26T10:08:11;12.50;71.94
66586;SHT30;53444;45.822;16.092;2024-02-26T10:10:39;12.33;71.33
66586;SHT30;53444;45.822;16.092;2024-02-26T10:13:05;12.48;72.20
66586;SHT30;53444;45.822;16.092;2024-02-26T10:15:35;12.77;70.23
66586;SHT30;53444;45.822;16.092;2024-02-26T10:18:04;12.74;70.38
66586;SHT30;53444;45.822;16.092;2024-02-26T10:20:30;12.57;69.47
66586;SHT30;53444;45.822;16.092;2024-02-26T10:23:02;12.91;68.20
66586;SHT30;53444;45.822;16.092;2024-02-26T10:25:29;12.72;68.43
66586;SHT30;53444;45.822;16.092;2024-02-26T10:28:00;12.96;68.15
66586;SHT30;53444;45.822;16.092;2024-02-26T10:30:28;13.49;67.33
66586;SHT30;53444;45.822;16.092;2024-02-26T10:32:56;13.67;66.71
66586;SHT30;53444;45.822;16.092;2024-02-26T10:35:23;13.40;67.77
66586;SHT30;53444;45.822;16.092;2024-02-26T10:37:50;13.62;66.89
66586;SHT30;53444;45.822;16.092;2024-02-26T10:40:19;13.98;66.45
66586;SHT30;53444;45.822;16.092;2024-02-26T10:42:45;13.60;65.16
66586;SHT30;53444;45.822;16.092;2024-02-26T10:45:12;13.71;62.96
66586;SHT30;53444;45.822;16.092;2024-02-26T10:47:40;13.52;62.84
66586;SHT30;53444;45.822;16.092;2024-02-26T10:50:08;13.63;62.22
66586;SHT30;53444;45.822;16.092;2024-02-26T10:52:35;13.74;61.90
66586;SHT30;53444;45.822;16.092;2024-02-26T10:55:03;13.77;61.87
66586;SHT30;53444;45.822;16.092;2024-02-26T10:57:34;14.34;61.13
66586;SHT30;53444;45.822;16.092;2024-02-26T11:00:04;14.31;60.51
66586;SHT30;53444;45.822;16.092;2024-02-26T11:02:32;14.86;60.68
66586;SHT30;53444;45.822;16.092;2024-02-26T11:05:01;15.03;58.99
66586;SHT30;53444;45.822;16.092;2024-02-26T11:07:29;14.96;58.34
66586;SHT30;53444;45.822;16.092;2024-02-26T11:09:57;15.51;57.02
66586;SHT30;53444;45.822;16.092;2024-02-26T11:12:27;15.14;56.85
66586;SHT30;53444;45.822;16.092;2024-02-26T11:14:56;15.14;56.70
66586;SHT30;53444;45.822;16.092;2024-02-26T11:17:26;15.37;57.06
66586;SHT30;53444;45.822;16.092;2024-02-26T11:19:55;15.64;56.22
66586;SHT30;53444;45.822;16.092;2024-02-26T11:22:23;15.23;55.85
66586;SHT30;53444;45.822;16.092;2024-02-26T11:24:51;15.47;56.40
66586;SHT30;53444;45.822;16.092;2024-02-26T11:27:21;15.58;56.23
66586;SHT30;53444;45.822;16.092;2024-02-26T11:29:52;15.34;56.79
66586;SHT30;53444;45.822;16.092;2024-02-26T11:32:20;15.51;56.34
66586;SHT30;53444;45.822;16.092;2024-02-26T11:34:47;15.27;56.34
66586;SHT30;53444;45.822;16.092;2024-02-26T11:37:16;15.07;55.61
66586;SHT30;53444;45.822;16.092;2024-02-26T11:39:45;15.16;55.28
66586;SHT30;53444;45.822;16.092;2024-02-26T11:42:14;15.31;55.26
66586;SHT30;53444;45.822;16.092;2024-02-26T11:44:41;15.28;55.03
66586;SHT30;53444;45.822;16.092;2024-02-26T11:47:12;15.47;53.66
66586;SHT30;53444;45.822;16.092;2024-02-26T11:49:40;15.88;53.06
66586;SHT30;53444;45.822;16.092;2024-02-26T11:52:08;15.79;53.42
66586;SHT30;53444;45.822;16.092;2024-02-26T11:54:39;15.36;53.45
66586;SHT30;53444;45.822;16.092;2024-02-26T11:57:23;15.19;53.61
66586;SHT30;53444;45.822;16.092;2024-02-26T11:59:50;15.47;54.35
66586;SHT30;53444;45.822;16.092;2024-02-26T12:02:44;15.44;53.66
66586;SHT30;53444;45.822;16.092;2024-02-26T12:05:14;15.27;54.18
66586;SHT30;53444;45.822;16.092;2024-02-26T12:07:44;15.47;53.55
66586;SHT30;53444;45.822;16.092;2024-02-26T12:10:17;15.13;53.33
66586;SHT30;53444;45.822;16.092;2024-02-26T12:12:49;15.20;53.72
66586;SHT30;53444;45.822;16.092;2024-02-26T12:15:16;15.44;53.67
66586;SHT30;53444;45.822;16.092;2024-02-26T12:17:48;15.96;53.22
66586;SHT30;53444;45.822;16.092;2024-02-26T12:20:17;16.09;51.92
66586;SHT30;53444;45.822;16.092;2024-02-26T12:22:45;15.96;51.58
66586;SHT30;53444;45.822;16.092;2024-02-26T12:25:12;16.42;50.44
66586;SHT30;53444;45.822;16.092;2024-02-26T12:27:39;17.27;49.87
66586;SHT30;53444;45.822;16.092;2024-02-26T12:30:07;17.11;50.71
66586;SHT30;53444;45.822;16.092;2024-02-26T12:32:35;16.57;50.56
66586;SHT30;53444;45.822;16.092;2024-02-26T12:35:01;16.04;51.22
66586;SHT30;53444;45.822;16.092;2024-02-26T12:37:30;15.69;51.53
66586;SHT30;53444;45.822;16.092;2024-02-26T12:39:57;15.67;51.65
66586;SHT30;53444;45.822;16.092;2024-02-26T12:42:23;15.36;52.79
66586;SHT30;53444;45.822;16.092;2024-02-26T12:44:50;15.37;52.64
66586;SHT30;53444;45.822;16.092;2024-02-26T12:47:18;14.97;53.49
66586;SHT30;53444;45.822;16.092;2024-02-26T12:49:47;15.00;53.19
66586;SHT30;53444;45.822;16.092;2024-02-26T12:52:14;15.04;53.39
66586;SHT30;53444;45.822;16.092;2024-02-26T12:54:44;15.23;53.02
66586;SHT30;53444;45.822;16.092;2024-02-26T12:57:11;15.31;52.83
66586;SHT30;53444;45.822;16.092;2024-02-26T12:59:38;15.33;53.20
66586;SHT30;53444;45.822;16.092;2024-02-26T13:02:05;15.57;52.16
66586;SHT30;53444;45.822;16.092;2024-02-26T13:04:32;15.61;51.88
66586;SHT30;53444;45.822;16.092;2024-02-26T13:06:59;15.91;51.38
66586;SHT30;53444;45.822;16.092;2024-02-26T13:09:30;16.06;50.76
66586;SHT30;53444;45.822;16.092;2024-02-26T13:11:59;15.82;50.80
66586;SHT30;53444;45.822;16.092;2024-02-26T13:14:26;16.06;50.99
66586;SHT30;53444;45.822;16.092;2024-02-26T13:16:56;16.09;50.19
66586;SHT30;53444;45.822;16.092;2024-02-26T13:19:23;16.36;51.23
66586;SHT30;53444;45.822;16.092;2024-02-26T13:21:49;16.95;49.93
66586;SHT30;53444;45.822;16.092;2024-02-26T13:24:19;16.34;49.96
66586;SHT30;53444;45.822;16.092;2024-02-26T13:26:47;16.83;50.60
66586;SHT30;53444;45.822;16.092;2024-02-26T13:29:21;16.85;49.46
66586;SHT30;53444;45.822;16.092;2024-02-26T13:31:48;17.17;48.62
66586;SHT30;53444;45.822;16.092;2024-02-26T13:34:23;16.30;49.83
66586;SHT30;53444;45.822;16.092;2024-02-26T13:36:50;16.34;50.81
66586;SHT30;53444;45.822;16.092;2024-02-26T13:39:22;16.10;51.37
66586;SHT30;53444;45.822;16.092;2024-02-26T13:41:48;15.88;51.39
66586;SHT30;53444;45.822;16.092;2024-02-26T13:44:14;15.98;50.92
66586;SHT30;53444;45.822;16.092;2024-02-26T13:46:42;15.77;52.19
66586;SHT30;53444;45.822;16.092;2024-02-26T13:49:09;15.71;52.12
66586;SHT30;53444;45.822;16.092;2024-02-26T13:51:36;15.96;51.63
66586;SHT30;53444;45.822;16.092;2024-02-26T13:54:03;16.19;51.13
66586;SHT30;53444;45.822;16.092;2024-02-26T13:56:30;16.39;51.30
66586;SHT30;53444;45.822;16.092;2024-02-26T13:58:57;16.20;51.13
66586;SHT30;53444;45.822;16.092;2024-02-26T14:01:24;16.02;51.83
66586;SHT30;53444;45.822;16.092;2024-02-26T14:03:52;16.18;52.16
66586;SHT30;53444;45.822;16.092;2024-02-26T14:06:20;16.30;51.56
66586;SHT30;53444;45.822;16.092;2024-02-26T14:08:47;16.09;51.73
66586;SHT30;53444;45.822;16.092;2024-02-26T14:11:14;16.43;51.92
66586;SHT30;53444;45.822;16.092;2024-02-26T14:13:40;16.29;51.49
66586;SHT30;53444;45.822;16.092;2024-02-26T14:16:07;16.05;52.12
66586;SHT30;53444;45.822;16.092;2024-02-26T14:18:36;16.05;52.62
66586;SHT30;53444;45.822;16.092;2024-02-26T14:21:04;16.20;52.05
66586;SHT30;53444;45.822;16.092;2024-02-26T14:23:31;16.47;51.91
66586;SHT30;53444;45.822;16.092;2024-02-26T14:25:59;16.78;51.02
66586;SHT30;53444;45.822;16.092;2024-02-26T14:28:26;16.98;50.60
66586;SHT30;53444;45.822;16.092;2024-02-26T14:30:54;16.52;51.20
66586;SHT30;53444;45.822;16.092;2024-02-26T14:33:21;16.12;52.69
66586;SHT30;53444;45.822;16.092;2024-02-26T14:35:47;16.02;51.64
66586;SHT30;53444;45.822;16.092;2024-02-26T14:38:15;15.92;52.61
66586;SHT30;53444;45.822;16.092;2024-02-26T14:40:42;16.10;52.37
66586;SHT30;53444;45.822;16.092;2024-02-26T14:43:09;15.84;52.15
66586;SHT30;53444;45.822;16.092;2024-02-26T14:45:36;16.09;52.60
66586;SHT30;53444;45.822;16.092;2024-02-26T14:48:04;15.75;52.10
66586;SHT30;53444;45.822;16.092;2024-02-26T14:50:31;15.79;52.80
66586;SHT30;53444;45.822;16.092;2024-02-26T14:52:58;15.58;52.59
66586;SHT30;53444;45.822;16.092;2024-02-26T14:55:27;15.82;52.44
66586;SHT30;53444;45.822;16.092;2024-02-26T14:57:53;15.92;52.41
66586;SHT30;53444;45.822;16.092;2024-02-26T15:00:20;15.94;52.98
66586;SHT30;53444;45.822;16.092;2024-02-26T15:02:47;15.88;52.49
66586;SHT30;53444;45.822;16.092;2024-02-26T15:05:14;15.85;52.92
66586;SHT30;53444;45.822;16.092;2024-02-26T15:07:42;15.65;52.69
66586;SHT30;53444;45.822;16.092;2024-02-26T15:10:09;15.68;53.02
66586;SHT30;53444;45.822;16.092;2024-02-26T15:12:37;15.64;52.78
66586;SHT30;53444;45.822;16.092;2024-02-26T15:15:04;15.61;53.69
66586;SHT30;53444;45.822;16.092;2024-02-26T15:17:31;15.57;54.10
66586;SHT30;53444;45.822;16.092;2024-02-26T15:20:00;15.44;53.78
66586;SHT30;53444;45.822;16.092;2024-02-26T15:22:27;15.40;53.43
66586;SHT30;53444;45.822;16.092;2024-02-26T15:24:54;15.41;53.87
66586;SHT30;53444;45.822;16.092;2024-02-26T15:27:21;15.40;54.28
66586;SHT30;53444;45.822;16.092;2024-02-26T15:29:49;15.22;54.53
66586;SHT30;53444;45.822;16.092;2024-02-26T15:32:21;15.19;54.65